x

Isle Of Shoals, Nh (iosn3) Weather Station

5:00 - Fri 12th Feb 2016 All times are EST. -5 hours from GMT.

  • Wind
    11mph, 16mph gusts
  • Ar Temp 22°f
  • Sea Pressure 1016.3mb
  • Isle Of Shoals, Nh
  • Isle Of Shoals, Nh

More Historic Weather Station data

Upgrade to MSW Pro to gain access to the past 30 days of data for over 8000 Wavebouys and Weather Stations around the globe.

Join Pro

Comparision Forecast

View Surf forecast
   
Sex 02/12 5:00 11 16 mph 1016.3mb 22f
4:00 10 14 mph 1016.9mb 21f
3:00 10 11 mph 1017mb 21f
2:00 10 11 mph 1017.3mb 19f
1:00 17 20 mph 1018mb 17f
12:00 15 18 mph 1019.2mb 16f
11:00 17 20 mph 1019.7mb 13f
10:00 18 21 mph 1020.3mb 10f
9:00 23 28 mph 1020.7mb 7f
8:00 26 29 mph 1020.6mb 6f
7:00 28 33 mph 1019.5mb 6f
6:00 33 38 mph 1018.4mb 6f
5:00 31 39 mph 1018.3mb 6f
4:00 33 38 mph 1017.4mb 6f
3:00 28 36 mph 1017.2mb 7f
2:00 33 43 mph 1015.6mb 8f
1:00 36 44 mph 1014.9mb 8f
12:00 32 37 mph 1014mb 10f
Qui 02/11 11:00 29 32 mph 1013.3mb 12f
10:00 33 36 mph 1011.8mb 13f
9:00 33 38 mph 1010.9mb 15f
8:00 30 34 mph 1009.6mb 18f
7:00 33 38 mph 1008.1mb 20f
6:00 25 31 mph 1007.4mb 22f
5:00 30 33 mph 1006mb 21f
4:00 26 32 mph 1004.9mb 24f
3:00 37 40 mph 1003.2mb 24f
2:00 25 29 mph 1003.6mb 25f
1:00 22 24 mph 1003.3mb 26f
12:00 17 20 mph 1003.8mb 28f
11:00 17 20 mph 1004.2mb 27f
10:00 21 23 mph 1004mb 26f
9:00 21 25 mph 1004.2mb 26f
8:00 16 18 mph 1003.8mb 26f
7:00 18 21 mph 1003.5mb 26f
6:00 18 20 mph 1003.4mb 26f
5:00 17 20 mph 1002.8mb 27f
4:00 18 22 mph 1002.5mb 28f
3:00 21 23 mph 1002.1mb 29f
2:00 23 26 mph 1001.9mb 30f
1:00 21 23 mph 1001.9mb 31f
12:00 24 26 mph 1001.6mb 32f
Qua 02/10 11:00 23 26 mph 1001.2mb 33f
10:00 23 26 mph 1001.3mb 34f
9:00 21 23 mph 1001mb 34f
8:00 17 18 mph 1001.1mb 35f
7:00 14 15 mph 1001.3mb 34f
6:00 14 15 mph 1001.2mb 34f
5:00 10 13 mph 1000.4mb 34f
4:00 8 10 mph 1000mb 34f
3:00 8
mph
999.7mb 33f
2:00 7
mph
999.6mb 32f
1:00 6 7 mph 1000mb 31f
12:00 9 10 mph 1000.7mb 30f
11:00 13 14 mph 1001.6mb 30f
10:00 11 14 mph 1002mb 29f
9:00 15 16 mph 1002.1mb 31f
8:00 14 16 mph 1002.1mb 31f
7:00 15 17 mph 1002.1mb 30f
6:00 14 16 mph 1001.7mb 29f
5:00 7 9 mph 1001.6mb 29f
4:00 5 6 mph 1001.2mb 28f
3:00 3 5 mph 1001.6mb 27f
2:00 3 5 mph 1001.7mb 26f
1:00 2 3 mph 1001.8mb 27f
12:00 6
mph
1001.7mb 28f
Ter 02/09 11:00 6 7 mph 1001.9mb 28f
10:00 5 7 mph 1002.4mb 28f
9:00 3 7 mph 1002.3mb 28f
8:00 6 7 mph 1002.2mb 28f
7:00 8 9 mph 1002.3mb 28f
6:00 7 8 mph 1002.2mb 28f
5:00 6 8 mph 1002mb 27f
4:00 8 10 mph 1001.6mb 28f
3:00 11 13 mph 1001.1mb 27f
2:00 9 11 mph 1001.4mb 26f
1:00 9 10 mph 1002.2mb 26f
12:00 11 14 mph 1003.6mb 24f
11:00 14 15 mph 1004.9mb 23f
10:00 18 21 mph 1005.3mb 23f
9:00 16 18 mph 1006.1mb 22f
8:00 20 22 mph 1005.3mb 23f
7:00 23 25 mph 1004.6mb 23f
6:00 18 22 mph 1005.9mb 22f
5:00 22 26 mph 1006.3mb 22f
4:00 20 22 mph 1006.6mb 21f
3:00 21 23 mph 1006.7mb 21f
2:00 21 24 mph 1007mb 21f
1:00 24 28 mph 1007mb 23f
12:00 29 32 mph 1007.4mb 22f